createdAt,value
2023-02-14T00:00:05.168Z,953.12
2023-02-14T00:01:05.524Z,953.16
2023-02-14T00:02:06.471Z,953.11
2023-02-14T00:03:07.620Z,953.11
2023-02-14T00:04:08.063Z,953.1
2023-02-14T00:05:08.389Z,953.12
2023-02-14T00:06:09.318Z,953.09
2023-02-14T00:07:10.223Z,953.09
2023-02-14T00:08:10.432Z,953.08
2023-02-14T00:09:10.725Z,953.1
2023-02-14T00:10:11.658Z,953.13
2023-02-14T00:11:11.899Z,953.1
2023-02-14T00:12:12.475Z,953.12
2023-02-14T00:13:12.669Z,953.13
2023-02-14T00:14:13.644Z,953.11
2023-02-14T00:15:14.162Z,953.12
2023-02-14T00:16:14.732Z,953.13
2023-02-14T00:17:14.941Z,953.1
2023-02-14T00:18:15.566Z,953.06
2023-02-14T00:19:16.322Z,953.09
2023-02-14T00:20:17.262Z,953.09
2023-02-14T00:21:17.465Z,953.05
2023-02-14T00:22:18.387Z,953.07
2023-02-14T00:23:19.316Z,953.1
2023-02-14T00:24:19.511Z,953.09
2023-02-14T00:25:19.787Z,953.12
2023-02-14T00:26:20.016Z,953.15
2023-02-14T00:27:20.536Z,953.14
2023-02-14T00:28:21.443Z,953.15
2023-02-14T00:29:21.837Z,953.13
2023-02-14T00:30:22.083Z,953.18
2023-02-14T00:31:22.840Z,953.18
2023-02-14T00:32:23.196Z,953.18
2023-02-14T00:33:23.737Z,953.2
2023-02-14T00:34:23.945Z,953.24
2023-02-14T00:35:24.586Z,953.21
2023-02-14T00:36:24.918Z,953.2
2023-02-14T00:37:25.265Z,953.15
2023-02-14T00:38:25.483Z,953.15
2023-02-14T00:39:26.102Z,953.17
2023-02-14T00:40:26.292Z,953.15
2023-02-14T00:41:26.511Z,953.14
2023-02-14T00:42:26.812Z,953.15
2023-02-14T00:43:27.009Z,953.13
2023-02-14T00:44:27.289Z,953.16
2023-02-14T00:45:28.232Z,953.14
2023-02-14T00:46:29.233Z,953.15
2023-02-14T00:47:29.490Z,953.17
2023-02-14T00:48:30.424Z,953.16
2023-02-14T00:49:30.715Z,953.19
2023-02-14T00:50:30.907Z,953.15
2023-02-14T00:51:31.101Z,953.22
2023-02-14T00:52:31.704Z,953.18
2023-02-14T00:53:32.617Z,953.16
2023-02-14T00:54:32.829Z,953.18
2023-02-14T00:55:33.748Z,953.19
2023-02-14T00:56:34.094Z,953.21
2023-02-14T00:57:34.625Z,953.23
2023-02-14T00:58:34.962Z,953.26
2023-02-14T00:59:35.367Z,953.28
2023-02-14T01:00:35.619Z,953.26
2023-02-14T01:01:36.434Z,953.27
2023-02-14T01:02:36.977Z,953.31
2023-02-14T01:03:37.893Z,953.31
2023-02-14T01:04:38.562Z,953.29
2023-02-14T01:05:38.803Z,953.29
2023-02-14T01:06:39.731Z,953.3
2023-02-14T01:07:40.674Z,953.28
2023-02-14T01:08:40.943Z,953.32
2023-02-14T01:09:41.426Z,953.33
2023-02-14T01:10:41.788Z,953.34
2023-02-14T01:11:42.148Z,953.35
2023-02-14T01:12:42.597Z,953.38
2023-02-14T01:13:42.820Z,953.39
2023-02-14T01:14:43.118Z,953.37
2023-02-14T01:15:43.748Z,953.4
2023-02-14T01:16:44.463Z,953.39
2023-02-14T01:17:45.082Z,953.41
2023-02-14T01:18:46.044Z,953.4
2023-02-14T01:19:47.113Z,953.39
2023-02-14T01:20:47.802Z,953.39
2023-02-14T01:21:48.795Z,953.37
2023-02-14T01:22:49.004Z,953.37
2023-02-14T01:23:49.366Z,953.36
2023-02-14T01:24:50.282Z,953.39
2023-02-14T01:25:50.824Z,953.37
2023-02-14T01:26:51.087Z,953.36
2023-02-14T01:27:51.620Z,953.4
2023-02-14T01:28:52.272Z,953.4
2023-02-14T01:29:52.931Z,953.42
2023-02-14T01:30:53.271Z,953.4
2023-02-14T01:31:54.221Z,953.37
2023-02-14T01:32:55.125Z,953.35
2023-02-14T01:33:55.746Z,953.33
2023-02-14T01:34:55.964Z,953.31
2023-02-14T01:35:56.637Z,953.28
2023-02-14T01:36:57.559Z,953.32
2023-02-14T01:37:58.177Z,953.33
2023-02-14T01:38:58.374Z,953.31
2023-02-14T01:39:58.631Z,953.3
2023-02-14T01:40:59.045Z,953.29
2023-02-14T01:41:59.117Z,953.23
2023-02-14T01:42:59.806Z,953.29
2023-02-14T01:44:00.740Z,953.25
2023-02-14T01:45:01.724Z,953.28
2023-02-14T01:46:02.361Z,953.28
2023-02-14T01:47:03.322Z,953.34
2023-02-14T01:48:03.714Z,953.37
2023-02-14T01:49:04.672Z,953.3
2023-02-14T01:50:05.378Z,953.3
2023-02-14T01:51:05.888Z,953.27
2023-02-14T01:52:06.076Z,953.26
2023-02-14T01:53:06.269Z,953.21
2023-02-14T01:54:07.228Z,953.22
2023-02-14T01:55:07.468Z,953.25
2023-02-14T01:56:07.961Z,953.26
2023-02-14T01:57:08.617Z,953.28
2023-02-14T01:58:08.964Z,953.23
2023-02-14T01:59:09.160Z,953.27
2023-02-14T02:00:09.568Z,953.24
2023-02-14T02:01:10.540Z,953.22
2023-02-14T02:02:11.435Z,953.15
2023-02-14T02:03:11.707Z,953.15
2023-02-14T02:04:12.612Z,953.15
2023-02-14T02:05:12.838Z,953.17
2023-02-14T02:06:13.036Z,953.12
2023-02-14T02:07:13.936Z,953.11
2023-02-14T02:08:14.932Z,953.11
2023-02-14T02:09:15.536Z,953.11
2023-02-14T02:10:16.600Z,953.06
2023-02-14T02:11:17.522Z,953.09
2023-02-14T02:12:18.054Z,953.06
2023-02-14T02:13:19.046Z,953.09
2023-02-14T02:14:19.283Z,953.07
2023-02-14T02:15:19.857Z,953.06
2023-02-14T02:16:20.904Z,953.06
2023-02-14T02:17:21.029Z,953.05
2023-02-14T02:18:21.234Z,953.08
2023-02-14T02:19:22.180Z,953.06
2023-02-14T02:20:22.547Z,953.06
2023-02-14T02:21:23.031Z,953.03
2023-02-14T02:22:23.943Z,953.03
2023-02-14T02:23:24.862Z,953.03
2023-02-14T02:24:25.794Z,952.98
2023-02-14T02:25:26.690Z,952.97
2023-02-14T02:26:27.630Z,952.94
2023-02-14T02:27:27.878Z,952.96
2023-02-14T02:28:28.861Z,952.9
2023-02-14T02:29:29.086Z,952.88
2023-02-14T02:30:29.473Z,952.87
2023-02-14T02:31:30.092Z,952.91
2023-02-14T02:32:30.577Z,952.86
2023-02-14T02:33:31.217Z,952.91
2023-02-14T02:34:31.416Z,952.9
2023-02-14T02:35:32.344Z,952.95
2023-02-14T02:36:32.830Z,952.94
2023-02-14T02:37:33.733Z,952.91
2023-02-14T02:38:34.379Z,952.97
2023-02-14T02:39:35.287Z,952.98
2023-02-14T02:40:35.485Z,952.97
2023-02-14T02:41:36.123Z,952.96
2023-02-14T02:42:37.067Z,953
2023-02-14T02:43:37.318Z,952.99
2023-02-14T02:44:37.937Z,953.02
2023-02-14T02:45:39.071Z,953.06
2023-02-14T02:46:39.755Z,953.01
2023-02-14T02:47:40.296Z,953.02
2023-02-14T02:48:40.802Z,952.99
2023-02-14T02:49:41.721Z,953
2023-02-14T02:50:42.710Z,952.99
2023-02-14T02:51:43.651Z,952.96
2023-02-14T02:52:44.287Z,952.93
2023-02-14T02:53:45.212Z,952.96
2023-02-14T02:54:45.407Z,952.93
2023-02-14T02:55:46.328Z,952.98
2023-02-14T02:56:47.316Z,952.95
2023-02-14T02:57:47.608Z,952.97
2023-02-14T02:58:47.980Z,952.96
2023-02-14T02:59:48.596Z,952.98
2023-02-14T03:00:49.036Z,953.03
2023-02-14T03:01:49.320Z,953.09
2023-02-14T03:02:50.039Z,953.09
2023-02-14T03:03:50.392Z,953.04
2023-02-14T03:04:51.029Z,953.07
2023-02-14T03:05:52.087Z,953.05
2023-02-14T03:06:52.297Z,953.03
2023-02-14T03:07:52.506Z,953.01
2023-02-14T03:08:52.995Z,953.01
2023-02-14T03:09:53.197Z,953.06
2023-02-14T03:10:54.241Z,953.03
2023-02-14T03:11:55.320Z,953.03
2023-02-14T03:12:55.569Z,953.06
2023-02-14T03:13:55.846Z,953.05
2023-02-14T03:14:56.204Z,953.06
2023-02-14T03:15:56.540Z,953.07
2023-02-14T03:16:57.094Z,953.03
2023-02-14T03:17:57.297Z,953.06
2023-02-14T03:18:58.222Z,953.09
2023-02-14T03:19:58.431Z,953.11
2023-02-14T03:20:59.163Z,953.09
2023-02-14T03:21:59.209Z,953.13
2023-02-14T03:23:00.178Z,953.16
2023-02-14T03:24:00.372Z,953.19
2023-02-14T03:25:00.582Z,953.22
2023-02-14T03:26:01.075Z,953.19
2023-02-14T03:27:01.756Z,953.25
2023-02-14T03:28:02.687Z,953.24
2023-02-14T03:29:03.222Z,953.24
2023-02-14T03:30:03.432Z,953.26
2023-02-14T03:31:04.354Z,953.24
2023-02-14T03:32:04.461Z,953.28
2023-02-14T03:33:05.140Z,953.25
2023-02-14T03:34:05.342Z,953.23
2023-02-14T03:35:06.252Z,953.23
2023-02-14T03:36:06.735Z,953.23
2023-02-14T03:37:07.653Z,953.21
2023-02-14T03:38:07.859Z,953.2
2023-02-14T03:39:08.495Z,953.16
2023-02-14T03:40:09.414Z,953.18
2023-02-14T03:41:09.735Z,953.16
2023-02-14T03:42:10.371Z,953.16
2023-02-14T03:43:11.042Z,953.13
2023-02-14T03:44:11.353Z,953.16
2023-02-14T03:45:12.090Z,953.13
2023-02-14T03:46:12.642Z,953.1
2023-02-14T03:47:13.366Z,953.12
2023-02-14T03:48:13.559Z,953.11
2023-02-14T03:49:13.759Z,953.11
2023-02-14T03:50:14.683Z,953.12
2023-02-14T03:51:15.232Z,953.09
2023-02-14T03:52:16.145Z,953.11
2023-02-14T03:53:16.719Z,953.11
2023-02-14T03:54:17.342Z,953.1
2023-02-14T03:55:17.547Z,953.11
2023-02-14T03:56:17.760Z,953.09
2023-02-14T03:57:18.272Z,953.1
2023-02-14T03:58:18.787Z,953.12
2023-02-14T03:59:19.125Z,953.13
2023-02-14T04:00:19.351Z,953.09
2023-02-14T04:01:19.534Z,953.08
2023-02-14T04:02:19.669Z,953.04
2023-02-14T04:03:20.607Z,953.04
2023-02-14T04:04:21.192Z,953.06
2023-02-14T04:05:22.120Z,953.11
2023-02-14T04:06:22.328Z,953.06
2023-02-14T04:07:23.303Z,953.04
2023-02-14T04:08:23.554Z,953.06
2023-02-14T04:09:24.053Z,953.04
2023-02-14T04:10:24.956Z,953.04
2023-02-14T04:11:25.254Z,953.07
2023-02-14T04:12:37.041Z,953.13
2023-02-14T04:13:26.477Z,953.1
2023-02-14T04:14:27.044Z,953.09
2023-02-14T04:15:27.224Z,953.08
2023-02-14T04:16:27.405Z,953.1
2023-02-14T04:17:28.321Z,953.06
2023-02-14T04:18:28.538Z,953.02
2023-02-14T04:19:29.027Z,953.06
2023-02-14T04:20:29.233Z,953.03
2023-02-14T04:21:29.400Z,953.07
2023-02-14T04:22:29.582Z,953.08
2023-02-14T04:23:29.830Z,953.09
2023-02-14T04:24:30.028Z,953.09
2023-02-14T04:25:30.977Z,953.08
2023-02-14T04:26:31.179Z,953.1
2023-02-14T04:27:31.701Z,953.12
2023-02-14T04:28:31.960Z,953.11
2023-02-14T04:29:32.191Z,953.06
2023-02-14T04:30:32.843Z,953.07
2023-02-14T04:31:34.088Z,953.01
2023-02-14T04:32:34.078Z,953.02
2023-02-14T04:33:35.002Z,953.05
2023-02-14T04:34:35.956Z,953.11
2023-02-14T04:35:36.442Z,953.07
2023-02-14T04:36:36.699Z,953.14
2023-02-14T04:37:37.186Z,953.12
2023-02-14T04:38:37.679Z,953.08
2023-02-14T04:39:38.181Z,953.06
2023-02-14T04:40:38.663Z,953.01
2023-02-14T04:41:39.272Z,952.98
2023-02-14T04:42:40.191Z,953.04
2023-02-14T04:43:40.878Z,953.01
2023-02-14T04:44:41.134Z,953.02
2023-02-14T04:45:42.065Z,953.02
2023-02-14T04:46:43.133Z,953.03
2023-02-14T04:47:43.957Z,953.03
2023-02-14T04:48:44.202Z,953.03
2023-02-14T04:49:44.831Z,953.01
2023-02-14T04:50:45.029Z,952.96
2023-02-14T04:51:45.617Z,952.98
2023-02-14T04:52:45.974Z,952.95
2023-02-14T04:53:46.319Z,952.93
2023-02-14T04:54:46.566Z,952.99
2023-02-14T04:55:47.489Z,953.03
2023-02-14T04:56:48.441Z,953
2023-02-14T04:57:49.443Z,953.02
2023-02-14T04:58:50.436Z,952.98
2023-02-14T04:59:50.527Z,952.91
2023-02-14T05:00:50.943Z,952.92
2023-02-14T05:01:51.586Z,952.86
2023-02-14T05:02:51.820Z,952.86
2023-02-14T05:03:52.464Z,952.84
2023-02-14T05:04:52.710Z,952.84
2023-02-14T05:05:53.658Z,952.89
2023-02-14T05:06:54.589Z,952.85
2023-02-14T05:07:55.068Z,952.88
2023-02-14T05:08:56.000Z,952.87
2023-02-14T05:09:56.921Z,952.89
2023-02-14T05:10:57.303Z,952.81
2023-02-14T05:11:57.846Z,952.88
2023-02-14T05:12:58.753Z,952.87
2023-02-14T05:13:58.980Z,952.9
2023-02-14T05:14:59.213Z,952.91
2023-02-14T05:16:00.232Z,952.92
2023-02-14T05:17:01.116Z,952.88
2023-02-14T05:18:01.670Z,952.86
2023-02-14T05:19:01.882Z,952.86
2023-02-14T05:20:02.777Z,952.84
2023-02-14T05:21:02.978Z,952.83
2023-02-14T05:22:03.292Z,952.8
2023-02-14T05:23:03.919Z,952.79
2023-02-14T05:24:04.187Z,952.81
2023-02-14T05:25:05.098Z,952.84
2023-02-14T05:26:05.296Z,952.89
2023-02-14T05:27:06.237Z,952.84
2023-02-14T05:28:06.547Z,952.87
2023-02-14T05:29:07.566Z,952.87
2023-02-14T05:30:07.890Z,952.87
2023-02-14T05:31:08.670Z,952.86
2023-02-14T05:32:09.777Z,952.85
2023-02-14T05:33:10.656Z,952.85
2023-02-14T05:34:11.283Z,952.87
2023-02-14T05:35:12.227Z,952.85
2023-02-14T05:36:13.134Z,952.87
2023-02-14T05:37:14.091Z,952.84
2023-02-14T05:38:14.285Z,952.83
2023-02-14T05:39:14.532Z,952.82
2023-02-14T05:40:15.479Z,952.82
2023-02-14T05:41:16.150Z,952.88
2023-02-14T05:42:16.765Z,952.87
2023-02-14T05:43:17.424Z,952.87
2023-02-14T05:44:18.158Z,952.84
2023-02-14T05:45:18.405Z,952.85
2023-02-14T05:46:19.294Z,952.79
2023-02-14T05:47:19.559Z,952.8
2023-02-14T05:48:19.770Z,952.81
2023-02-14T05:49:20.698Z,952.83
2023-02-14T05:50:21.353Z,952.85
2023-02-14T05:51:22.310Z,952.84
2023-02-14T05:52:23.305Z,952.83
2023-02-14T05:53:24.204Z,952.8
2023-02-14T05:54:25.165Z,952.81
2023-02-14T05:55:25.374Z,952.78
2023-02-14T05:56:25.934Z,952.78
2023-02-14T05:57:26.170Z,952.8
2023-02-14T05:58:26.667Z,952.77
2023-02-14T05:59:26.908Z,952.77
2023-02-14T06:00:27.462Z,952.77
2023-02-14T06:01:28.127Z,952.76
2023-02-14T06:02:28.842Z,952.73
2023-02-14T06:03:29.625Z,952.71
2023-02-14T06:04:30.264Z,952.77
2023-02-14T06:05:30.486Z,952.77
2023-02-14T06:06:31.130Z,952.78
2023-02-14T06:07:31.948Z,952.81
2023-02-14T06:08:32.872Z,952.83
2023-02-14T06:09:33.085Z,952.82
2023-02-14T06:10:33.285Z,952.84
2023-02-14T06:11:33.922Z,952.91
2023-02-14T06:12:34.630Z,952.94
2023-02-14T06:13:35.248Z,952.87
2023-02-14T06:14:36.210Z,952.88
2023-02-14T06:15:36.755Z,952.91
2023-02-14T06:16:37.519Z,952.9
2023-02-14T06:17:37.630Z,952.91
2023-02-14T06:18:37.848Z,952.96
2023-02-14T06:19:38.058Z,952.93
2023-02-14T06:20:38.410Z,952.93
2023-02-14T06:21:38.895Z,952.91
2023-02-14T06:22:39.660Z,952.91
2023-02-14T06:23:39.849Z,952.92
2023-02-14T06:24:40.886Z,952.95
2023-02-14T06:25:41.805Z,952.98
2023-02-14T06:26:42.717Z,952.95
2023-02-14T06:27:43.351Z,952.93
2023-02-14T06:28:43.704Z,952.89
2023-02-14T06:29:44.429Z,952.91
2023-02-14T06:30:45.123Z,952.94
2023-02-14T06:31:45.731Z,952.93
2023-02-14T06:32:46.100Z,952.88
2023-02-14T06:33:46.612Z,952.92
2023-02-14T06:34:47.533Z,952.93
2023-02-14T06:35:48.017Z,952.9
2023-02-14T06:36:48.961Z,952.89
2023-02-14T06:37:49.903Z,952.95
2023-02-14T06:38:50.270Z,952.93
2023-02-14T06:39:50.479Z,952.92
2023-02-14T06:40:51.451Z,952.97
2023-02-14T06:41:52.114Z,953.01
2023-02-14T06:42:52.565Z,953.02
2023-02-14T06:43:52.788Z,952.98
2023-02-14T06:44:53.036Z,952.98
2023-02-14T06:45:53.665Z,952.97
2023-02-14T06:46:54.662Z,953.02
2023-02-14T06:47:54.929Z,953.06
2023-02-14T06:48:55.874Z,953.08
2023-02-14T06:49:56.781Z,953.13
2023-02-14T06:50:58.221Z,953.1
2023-02-14T06:51:58.634Z,953.12
2023-02-14T06:52:59.063Z,953.11
2023-02-14T06:53:59.997Z,953.14
2023-02-14T06:55:00.246Z,953.2
2023-02-14T06:56:01.176Z,953.22
2023-02-14T06:57:02.142Z,953.17
2023-02-14T06:58:02.342Z,953.16
2023-02-14T06:59:02.837Z,953.18
2023-02-14T07:00:03.791Z,953.18
2023-02-14T07:01:04.407Z,953.18
2023-02-14T07:02:05.073Z,953.17
2023-02-14T07:03:05.842Z,953.16
2023-02-14T07:04:06.057Z,953.14
2023-02-14T07:05:06.295Z,953.16
2023-02-14T07:06:07.292Z,953.16
2023-02-14T07:07:07.510Z,953.16
2023-02-14T07:08:07.740Z,953.19
2023-02-14T07:09:08.634Z,953.18
2023-02-14T07:10:09.312Z,953.17
2023-02-14T07:11:10.266Z,953.16
2023-02-14T07:12:11.192Z,953.18
2023-02-14T07:13:11.908Z,953.14
2023-02-14T07:14:12.131Z,953.18
2023-02-14T07:15:13.063Z,953.22
2023-02-14T07:16:13.805Z,953.19
2023-02-14T07:17:13.848Z,953.15
2023-02-14T07:18:14.408Z,953.14
2023-02-14T07:19:14.752Z,953.13
2023-02-14T07:20:14.980Z,953.08
2023-02-14T07:21:15.640Z,953.04
2023-02-14T07:22:15.835Z,953.05
2023-02-14T07:23:16.037Z,953.07
2023-02-14T07:24:16.242Z,953.08
2023-02-14T07:25:16.475Z,953.06
2023-02-14T07:26:16.683Z,953.08
2023-02-14T07:27:17.601Z,953.09
2023-02-14T07:28:18.528Z,953.14
2023-02-14T07:29:18.735Z,953.13
2023-02-14T07:30:19.209Z,953.13
2023-02-14T07:31:20.259Z,953.15
2023-02-14T07:32:20.459Z,953.18
2023-02-14T07:33:21.206Z,953.14
2023-02-14T07:34:22.140Z,953.18
2023-02-14T07:35:23.178Z,953.15
2023-02-14T07:36:23.389Z,953.14
2023-02-14T07:37:24.073Z,953.16
2023-02-14T07:38:24.300Z,953.12
2023-02-14T07:39:24.545Z,953.15
2023-02-14T07:40:24.932Z,953.13
2023-02-14T07:41:25.170Z,953.21
2023-02-14T07:42:25.677Z,953.21
2023-02-14T07:43:26.056Z,953.2
2023-02-14T07:44:26.989Z,953.22
2023-02-14T07:45:27.947Z,953.27
2023-02-14T07:46:28.567Z,953.32
2023-02-14T07:47:29.524Z,953.31
2023-02-14T07:48:31.923Z,953.27
2023-02-14T07:49:30.584Z,953.29
2023-02-14T07:50:31.241Z,953.33
2023-02-14T07:51:32.164Z,953.3
2023-02-14T07:52:32.296Z,953.33
2023-02-14T07:53:32.898Z,953.29
2023-02-14T07:54:33.166Z,953.25
2023-02-14T07:55:34.117Z,953.27
2023-02-14T07:56:34.783Z,953.29
2023-02-14T07:57:35.728Z,953.31
2023-02-14T07:58:36.403Z,953.26
2023-02-14T07:59:36.620Z,953.23
2023-02-14T08:00:37.616Z,953.25
2023-02-14T08:01:38.201Z,953.3
2023-02-14T08:02:39.250Z,953.33
2023-02-14T08:03:39.370Z,953.26
2023-02-14T08:04:40.313Z,953.27
2023-02-14T08:05:41.126Z,953.24
2023-02-14T08:06:42.069Z,953.28
2023-02-14T08:07:43.022Z,953.29
2023-02-14T08:08:43.673Z,953.3
2023-02-14T08:09:44.591Z,953.28
2023-02-14T08:10:44.805Z,953.29
2023-02-14T08:11:45.817Z,953.26
2023-02-14T08:12:46.738Z,953.25
2023-02-14T08:13:47.742Z,953.22
2023-02-14T08:14:48.681Z,953.25
2023-02-14T08:15:49.844Z,953.28
2023-02-14T08:16:50.734Z,953.27
2023-02-14T08:17:51.102Z,953.25
2023-02-14T08:18:51.356Z,953.28
2023-02-14T08:19:52.289Z,953.32
2023-02-14T08:20:52.962Z,953.32
2023-02-14T08:21:53.089Z,953.33
2023-02-14T08:22:53.468Z,953.32
2023-02-14T08:23:54.536Z,953.34
2023-02-14T08:24:55.472Z,953.36
2023-02-14T08:25:56.436Z,953.39
2023-02-14T08:26:56.663Z,953.36
2023-02-14T08:27:56.872Z,953.37
2023-02-14T08:28:57.285Z,953.35
2023-02-14T08:29:57.428Z,953.3
2023-02-14T08:30:58.610Z,953.31
2023-02-14T08:31:58.416Z,953.27
2023-02-14T08:32:59.116Z,953.26
2023-02-14T08:33:59.920Z,953.28
2023-02-14T08:35:00.181Z,953.27
2023-02-14T08:36:01.110Z,953.25
2023-02-14T08:37:01.699Z,953.21
2023-02-14T08:38:02.656Z,953.16
2023-02-14T08:39:02.943Z,953.18
2023-02-14T08:40:03.895Z,953.12
2023-02-14T08:41:07.664Z,953.12
2023-02-14T08:42:04.972Z,953.13
2023-02-14T08:43:05.766Z,953.16
2023-02-14T08:44:05.865Z,953.15
2023-02-14T08:45:06.590Z,953.2
2023-02-14T08:46:06.857Z,953.2
2023-02-14T08:47:07.714Z,953.21
2023-02-14T08:48:08.067Z,953.17
2023-02-14T08:49:09.121Z,953.2
2023-02-14T08:50:09.653Z,953.19
2023-02-14T08:51:10.047Z,953.21
2023-02-14T08:52:10.454Z,953.2
2023-02-14T08:53:10.702Z,953.24
2023-02-14T08:54:11.175Z,953.24
2023-02-14T08:55:11.390Z,953.23
2023-02-14T08:56:12.471Z,953.25
2023-02-14T08:57:12.787Z,953.27
2023-02-14T08:58:13.092Z,953.23
2023-02-14T08:59:13.518Z,953.25
2023-02-14T09:00:13.836Z,953.21
2023-02-14T09:01:14.313Z,953.23
2023-02-14T09:02:14.837Z,953.27
2023-02-14T09:03:15.938Z,953.26
2023-02-14T09:04:16.740Z,953.26
2023-02-14T09:05:16.896Z,953.29
2023-02-14T09:06:17.927Z,953.25
2023-02-14T09:07:18.228Z,953.29
2023-02-14T09:08:19.224Z,953.27
2023-02-14T09:09:19.855Z,953.31
2023-02-14T09:10:20.460Z,953.27
2023-02-14T09:11:21.282Z,953.25
2023-02-14T09:12:21.644Z,953.23
2023-02-14T09:13:22.065Z,953.24
2023-02-14T09:14:22.785Z,953.21
2023-02-14T09:15:22.953Z,953.21
2023-02-14T09:16:24.067Z,953.23
2023-02-14T09:17:25.167Z,953.25
2023-02-14T09:18:25.399Z,953.23
2023-02-14T09:19:26.444Z,953.19
2023-02-14T09:20:26.748Z,953.28
2023-02-14T09:21:26.863Z,953.32
2023-02-14T09:22:27.908Z,953.35
2023-02-14T09:23:28.427Z,953.37
2023-02-14T09:24:29.198Z,953.35
2023-02-14T09:25:29.864Z,953.34
2023-02-14T09:26:30.900Z,953.33
2023-02-14T09:27:31.573Z,953.34
2023-02-14T09:28:32.547Z,953.34
2023-02-14T09:29:32.769Z,953.37
2023-02-14T09:30:33.080Z,953.43
2023-02-14T09:31:33.287Z,953.45
2023-02-14T09:32:33.496Z,953.42
2023-02-14T09:33:33.824Z,953.46
2023-02-14T09:34:34.233Z,953.46
2023-02-14T09:35:35.190Z,953.46
2023-02-14T09:36:35.406Z,953.45
2023-02-14T09:37:35.616Z,953.48
2023-02-14T09:38:35.846Z,953.53
2023-02-14T09:39:36.096Z,953.6
2023-02-14T09:40:37.032Z,953.57
2023-02-14T09:41:37.257Z,953.56
2023-02-14T09:42:37.877Z,953.55
2023-02-14T09:43:38.107Z,953.51
2023-02-14T09:44:38.289Z,953.49
2023-02-14T09:45:39.321Z,953.54
2023-02-14T09:46:39.866Z,953.55
2023-02-14T09:47:40.148Z,953.56
2023-02-14T09:48:41.104Z,953.52
2023-02-14T09:49:41.670Z,953.55
2023-02-14T09:50:42.198Z,953.54
2023-02-14T09:51:43.288Z,953.54
2023-02-14T09:52:43.546Z,953.49
2023-02-14T09:53:44.068Z,953.49
2023-02-14T09:54:44.434Z,953.47
2023-02-14T09:55:45.294Z,953.48
2023-02-14T09:56:51.146Z,953.49
2023-02-14T09:57:46.566Z,953.5
2023-02-14T09:58:46.778Z,953.55
2023-02-14T09:59:46.993Z,953.51
2023-02-14T10:00:48.049Z,953.51
2023-02-14T10:01:49.116Z,953.51
2023-02-14T10:02:49.659Z,953.46
2023-02-14T10:03:50.195Z,953.5
2023-02-14T10:04:51.116Z,953.5
2023-02-14T10:05:51.328Z,953.51
2023-02-14T10:06:51.676Z,953.47
2023-02-14T10:07:51.923Z,953.46
2023-02-14T10:08:52.916Z,953.45
2023-02-14T10:09:53.427Z,953.49
2023-02-14T10:10:54.108Z,953.51
2023-02-14T10:11:55.203Z,953.53
2023-02-14T10:12:56.167Z,953.51
2023-02-14T10:13:56.675Z,953.46
2023-02-14T10:14:57.268Z,953.46
2023-02-14T10:15:57.933Z,953.48
2023-02-14T10:16:59.055Z,953.46
2023-02-14T10:17:59.826Z,953.44
2023-02-14T10:19:00.209Z,953.46
2023-02-14T10:20:01.201Z,953.43
2023-02-14T10:21:02.493Z,953.44
2023-02-14T10:22:03.151Z,953.42
2023-02-14T10:23:04.086Z,953.43
2023-02-14T10:24:04.310Z,953.43
2023-02-14T10:25:05.412Z,953.44
2023-02-14T10:26:06.094Z,953.41
2023-02-14T10:27:10.123Z,953.44
2023-02-14T10:28:07.722Z,953.44
2023-02-14T10:29:08.240Z,953.45
2023-02-14T10:30:09.220Z,953.4
2023-02-14T10:31:09.669Z,953.4
2023-02-14T10:32:10.594Z,953.43
2023-02-14T10:33:10.921Z,953.41
2023-02-14T10:34:11.853Z,953.44
2023-02-14T10:35:12.228Z,953.44
2023-02-14T10:36:12.452Z,953.44
2023-02-14T10:37:12.690Z,953.4
2023-02-14T10:38:12.905Z,953.39
2023-02-14T10:39:13.159Z,953.41
2023-02-14T10:40:16.039Z,953.36
2023-02-14T10:41:15.150Z,953.38
2023-02-14T10:42:16.117Z,953.34
2023-02-14T10:43:16.705Z,953.39
2023-02-14T10:44:17.535Z,953.32
2023-02-14T10:45:17.903Z,953.32
2023-02-14T10:46:18.938Z,953.33
2023-02-14T10:47:19.774Z,953.28
2023-02-14T10:48:19.992Z,953.28
2023-02-14T10:49:20.952Z,953.25
2023-02-14T10:50:21.909Z,953.23
2023-02-14T10:51:22.144Z,953.23
2023-02-14T10:52:23.023Z,953.2
2023-02-14T10:53:23.235Z,953.18
2023-02-14T10:54:23.476Z,953.13
2023-02-14T10:55:32.228Z,953.1
2023-02-14T10:56:24.536Z,953.13
2023-02-14T10:57:25.578Z,953.1
2023-02-14T10:58:26.221Z,953.07
2023-02-14T10:59:27.176Z,953.04
2023-02-14T11:00:27.875Z,953.02
2023-02-14T11:01:28.893Z,953
2023-02-14T11:02:29.241Z,952.94
2023-02-14T11:03:29.563Z,952.94
2023-02-14T11:04:30.185Z,952.94
2023-02-14T11:05:31.250Z,952.95
2023-02-14T11:06:32.103Z,952.93
2023-02-14T11:07:32.652Z,952.87
2023-02-14T11:08:33.666Z,952.89
2023-02-14T11:09:34.687Z,952.88
2023-02-14T11:10:34.893Z,952.85
2023-02-14T11:11:35.570Z,952.82
2023-02-14T11:12:35.833Z,952.83
2023-02-14T11:13:36.469Z,952.78
2023-02-14T11:14:37.220Z,952.79
2023-02-14T11:15:38.013Z,952.75
2023-02-14T11:16:38.277Z,952.8
2023-02-14T11:17:38.828Z,952.77
2023-02-14T11:18:39.079Z,952.75
2023-02-14T11:19:39.324Z,952.73
2023-02-14T11:20:40.256Z,952.73
2023-02-14T11:21:41.185Z,952.73
2023-02-14T11:22:41.706Z,952.67
2023-02-14T11:23:42.696Z,952.71
2023-02-14T11:24:42.923Z,952.64
2023-02-14T11:25:43.702Z,952.58
2023-02-14T11:26:44.564Z,952.59
2023-02-14T11:27:45.578Z,952.52
2023-02-14T11:28:46.264Z,952.51
2023-02-14T11:29:47.217Z,952.49
2023-02-14T11:30:47.828Z,952.48
2023-02-14T11:31:48.005Z,952.4
2023-02-14T11:32:48.798Z,952.44
2023-02-14T11:33:49.060Z,952.44
2023-02-14T11:34:49.368Z,952.46
2023-02-14T11:35:49.799Z,952.48
2023-02-14T11:36:50.068Z,952.45
2023-02-14T11:37:50.290Z,952.39
2023-02-14T11:38:50.859Z,952.37
2023-02-14T11:39:51.869Z,952.33
2023-02-14T11:40:52.854Z,952.36
2023-02-14T11:41:53.929Z,952.38
2023-02-14T11:42:57.964Z,952.38
2023-02-14T11:43:54.884Z,952.34
2023-02-14T11:44:55.848Z,952.39
2023-02-14T11:45:56.104Z,952.33
2023-02-14T11:46:56.951Z,952.35
2023-02-14T11:47:57.151Z,952.32
2023-02-14T11:48:57.381Z,952.3
2023-02-14T11:49:58.030Z,952.32
2023-02-14T11:50:58.779Z,952.23
2023-02-14T11:51:59.183Z,952.3
2023-02-14T11:52:59.363Z,952.26
2023-02-14T11:53:59.754Z,952.25
2023-02-14T11:55:00.722Z,952.25
2023-02-14T11:56:01.087Z,952.27
2023-02-14T11:57:02.133Z,952.23
2023-02-14T11:58:02.535Z,952.28
2023-02-14T11:59:02.763Z,952.24
2023-02-14T12:00:03.371Z,952.18
2023-02-14T12:01:03.970Z,952.2
2023-02-14T12:02:04.949Z,952.16
2023-02-14T12:03:05.150Z,952.21
2023-02-14T12:04:06.228Z,952.16
2023-02-14T12:05:06.758Z,952.17
2023-02-14T12:06:06.937Z,952.16
2023-02-14T12:07:07.161Z,952.17
2023-02-14T12:08:08.116Z,952.18
2023-02-14T12:09:08.353Z,952.12
2023-02-14T12:10:09.292Z,952.13
2023-02-14T12:11:10.230Z,952.11
2023-02-14T12:12:10.886Z,952.11
2023-02-14T12:13:11.427Z,952.04
2023-02-14T12:14:11.943Z,952.06
2023-02-14T12:15:12.560Z,952.04
2023-02-14T12:16:13.048Z,952.06
2023-02-14T12:17:14.013Z,952.01
2023-02-14T12:18:14.260Z,952.01
2023-02-14T12:19:15.390Z,952.02
2023-02-14T12:20:15.352Z,951.98
2023-02-14T12:21:15.567Z,952.01
2023-02-14T12:22:16.356Z,951.98
2023-02-14T12:23:16.639Z,951.98
2023-02-14T12:24:16.919Z,952.03
2023-02-14T12:25:17.176Z,952
2023-02-14T12:26:18.190Z,952
2023-02-14T12:27:18.427Z,952.03
2023-02-14T12:28:19.372Z,951.99
2023-02-14T12:29:19.591Z,951.97
2023-02-14T12:30:20.214Z,951.96
2023-02-14T12:31:20.978Z,951.98
2023-02-14T12:32:21.810Z,951.93
2023-02-14T12:33:22.840Z,951.97
2023-02-14T12:34:23.773Z,951.92
2023-02-14T12:35:24.002Z,951.92
2023-02-14T12:36:25.050Z,951.9
2023-02-14T12:37:26.005Z,951.87